createdAt,value
2023-02-14T00:01:32.607Z,76.81
2023-02-14T00:04:01.671Z,76.85
2023-02-14T00:06:35.250Z,76.86
2023-02-14T00:09:03.283Z,76.96
2023-02-14T00:11:31.575Z,76.94
2023-02-14T00:14:18.825Z,76.95
2023-02-14T00:16:46.940Z,77.01
2023-02-14T00:19:16.986Z,77.06
2023-02-14T00:21:45.721Z,77.22
2023-02-14T00:24:16.869Z,77.23
2023-02-14T00:26:45.505Z,77.17
2023-02-14T00:29:16.635Z,77.26
2023-02-14T00:31:45.201Z,77.43
2023-02-14T00:34:15.655Z,77.39
2023-02-14T00:36:45.075Z,77.34
2023-02-14T00:39:15.360Z,77.27
2023-02-14T00:41:43.262Z,77.30
2023-02-14T00:44:13.597Z,77.34
2023-02-14T00:46:42.640Z,77.23
2023-02-14T00:49:10.998Z,77.19
2023-02-14T00:51:39.841Z,77.23
2023-02-14T00:54:07.981Z,77.26
2023-02-14T00:56:36.151Z,77.07
2023-02-14T00:59:04.213Z,77.04
2023-02-14T01:01:32.885Z,76.99
2023-02-14T01:04:00.959Z,76.99
2023-02-14T01:06:29.122Z,76.81
2023-02-14T01:08:58.094Z,77.00
2023-02-14T01:11:28.204Z,76.92
2023-02-14T01:13:58.685Z,76.93
2023-02-14T01:16:28.672Z,77.00
2023-02-14T01:19:00.326Z,76.93
2023-02-14T01:21:33.541Z,76.86
2023-02-14T01:24:05.653Z,76.98
2023-02-14T01:26:35.103Z,77.03
2023-02-14T01:29:05.351Z,77.00
2023-02-14T01:31:35.351Z,77.26
2023-02-14T01:34:04.548Z,77.28
2023-02-14T01:36:39.193Z,77.31
2023-02-14T01:39:15.494Z,77.60
2023-02-14T01:41:50.579Z,77.61
2023-02-14T01:44:18.566Z,77.54
2023-02-14T01:46:46.855Z,77.60
2023-02-14T01:49:22.933Z,77.88
2023-02-14T01:51:57.534Z,77.96
2023-02-14T01:54:27.568Z,78.00
2023-02-14T01:57:00.690Z,78.09
2023-02-14T01:59:36.663Z,78.03
2023-02-14T02:02:06.197Z,78.23
2023-02-14T02:04:40.650Z,78.42
2023-02-14T02:07:23.007Z,78.41
2023-02-14T02:09:56.047Z,78.42
2023-02-14T02:12:30.972Z,78.73
2023-02-14T02:15:00.408Z,78.66
2023-02-14T02:17:52.876Z,78.76
2023-02-14T02:20:48.656Z,78.93
2023-02-14T02:23:44.505Z,79.15
2023-02-14T02:26:35.226Z,79.37
2023-02-14T02:29:22.335Z,79.35
2023-02-14T02:32:16.380Z,79.53
2023-02-14T02:35:21.476Z,79.46
2023-02-14T02:38:14.740Z,79.75
2023-02-14T02:41:01.642Z,79.97
2023-02-14T02:43:36.961Z,80.16
2023-02-14T02:46:30.209Z,80.14
2023-02-14T02:49:40.136Z,80.31
2023-02-14T02:52:56.976Z,80.26
2023-02-14T02:56:09.241Z,80.57
2023-02-14T02:58:43.073Z,80.28
2023-02-14T03:02:02.613Z,80.34
2023-02-14T03:04:52.999Z,80.50
2023-02-14T03:07:40.475Z,80.41
2023-02-14T03:10:13.794Z,80.30
2023-02-14T03:12:57.518Z,80.35
2023-02-14T03:15:41.638Z,80.39
2023-02-14T03:18:29.936Z,80.36
2023-02-14T03:21:06.649Z,80.28
2023-02-14T03:23:40.494Z,80.33
2023-02-14T03:26:14.315Z,80.29
2023-02-14T03:29:10.199Z,80.54
2023-02-14T03:32:23.100Z,80.52
2023-02-14T03:35:03.223Z,80.86
2023-02-14T03:37:41.792Z,80.72
2023-02-14T03:40:28.392Z,80.71
2023-02-14T03:43:03.047Z,80.51
2023-02-14T03:45:40.639Z,80.54
2023-02-14T03:48:12.584Z,80.52
2023-02-14T03:50:44.986Z,80.71
2023-02-14T03:53:19.252Z,80.55
2023-02-14T03:56:12.680Z,80.57
2023-02-14T03:58:47.252Z,80.52
2023-02-14T04:01:23.366Z,80.47
2023-02-14T04:03:54.844Z,80.59
2023-02-14T04:06:23.416Z,80.57
2023-02-14T04:08:51.919Z,80.48
2023-02-14T04:11:20.003Z,80.51
2023-02-14T04:13:48.029Z,80.59
2023-02-14T04:16:16.197Z,80.61
2023-02-14T04:19:02.907Z,80.69
2023-02-14T04:21:30.954Z,80.98
2023-02-14T04:23:58.890Z,81.02
2023-02-14T04:26:26.889Z,81.21
2023-02-14T04:28:54.865Z,81.32
2023-02-14T04:31:23.071Z,81.24
2023-02-14T04:33:51.428Z,81.55
2023-02-14T04:36:19.427Z,81.58
2023-02-14T04:38:47.250Z,81.48
2023-02-14T04:41:15.340Z,81.75
2023-02-14T04:43:43.407Z,81.94
2023-02-14T04:46:11.435Z,81.93
2023-02-14T04:48:39.594Z,82.00
2023-02-14T04:51:07.670Z,82.14
2023-02-14T04:53:40.257Z,82.36
2023-02-14T04:56:08.290Z,82.41
2023-02-14T04:58:36.179Z,82.39
2023-02-14T05:01:04.220Z,82.53
2023-02-14T05:03:32.123Z,82.49
2023-02-14T05:06:00.002Z,82.40
2023-02-14T05:08:27.956Z,82.77
2023-02-14T05:10:55.918Z,82.69
2023-02-14T05:13:24.182Z,82.99
2023-02-14T05:15:52.378Z,82.87
2023-02-14T05:18:20.576Z,82.97
2023-02-14T05:20:52.467Z,83.07
2023-02-14T05:23:22.367Z,83.00
2023-02-14T05:25:52.208Z,83.00
2023-02-14T05:28:20.196Z,82.86
2023-02-14T05:30:48.310Z,82.69
2023-02-14T05:33:16.227Z,82.53
2023-02-14T05:35:44.868Z,82.33
2023-02-14T05:38:14.004Z,82.22
2023-02-14T05:40:42.834Z,81.92
2023-02-14T05:43:10.811Z,81.66
2023-02-14T05:45:38.799Z,81.53
2023-02-14T05:48:06.727Z,81.15
2023-02-14T05:50:35.003Z,80.88
2023-02-14T05:53:02.989Z,80.68
2023-02-14T05:55:31.032Z,80.29
2023-02-14T05:57:59.029Z,80.00
2023-02-14T06:00:27.083Z,79.82
2023-02-14T06:02:55.235Z,79.83
2023-02-14T06:05:23.303Z,79.68
2023-02-14T06:07:51.899Z,79.63
2023-02-14T06:10:22.051Z,79.44
2023-02-14T06:12:52.513Z,79.49
2023-02-14T06:15:21.254Z,79.38
2023-02-14T06:17:54.877Z,78.94
2023-02-14T06:20:24.421Z,79.14
2023-02-14T06:22:52.948Z,79.28
2023-02-14T06:25:22.707Z,79.28
2023-02-14T06:27:50.741Z,79.39
2023-02-14T06:30:19.256Z,79.29
2023-02-14T06:32:47.327Z,79.34
2023-02-14T06:35:16.220Z,79.52
2023-02-14T06:37:45.459Z,79.50
2023-02-14T06:40:14.876Z,79.52
2023-02-14T06:42:42.960Z,79.65
2023-02-14T06:45:11.233Z,79.71
2023-02-14T06:47:39.979Z,79.67
2023-02-14T06:50:11.653Z,79.57
2023-02-14T06:52:40.052Z,79.48
2023-02-14T06:55:09.778Z,79.34
2023-02-14T06:57:37.978Z,79.29
2023-02-14T07:00:07.454Z,79.23
2023-02-14T07:02:35.838Z,78.96
2023-02-14T07:05:04.497Z,78.86
2023-02-14T07:07:32.985Z,78.72
2023-02-14T07:10:01.192Z,78.92
2023-02-14T07:12:29.302Z,78.76
2023-02-14T07:14:57.344Z,78.72
2023-02-14T07:17:25.760Z,78.78
2023-02-14T07:19:53.902Z,78.76
2023-02-14T07:22:22.435Z,78.65
2023-02-14T07:24:50.468Z,78.75
2023-02-14T07:27:18.655Z,78.82
2023-02-14T07:29:46.810Z,78.84
2023-02-14T07:32:14.941Z,78.91
2023-02-14T07:34:43.083Z,78.91
2023-02-14T07:37:11.758Z,79.10
2023-02-14T07:39:39.634Z,79.26
2023-02-14T07:42:08.447Z,79.21
2023-02-14T07:44:40.148Z,79.34
2023-02-14T07:47:09.890Z,79.48
2023-02-14T07:49:38.136Z,79.69
2023-02-14T07:52:06.554Z,79.70
2023-02-14T07:54:54.825Z,79.83
2023-02-14T07:57:22.856Z,79.76
2023-02-14T07:59:50.738Z,79.81
2023-02-14T08:02:20.792Z,79.88
2023-02-14T08:04:48.889Z,79.86
2023-02-14T08:07:16.897Z,79.95
2023-02-14T08:09:44.880Z,79.96
2023-02-14T08:12:31.299Z,79.94
2023-02-14T08:15:19.215Z,80.02
2023-02-14T08:17:47.162Z,79.98
2023-02-14T08:20:15.049Z,79.99
2023-02-14T08:22:43.071Z,80.11
2023-02-14T08:25:11.060Z,79.96
2023-02-14T08:27:39.582Z,79.99
2023-02-14T08:30:08.842Z,80.04
2023-02-14T08:32:37.162Z,79.97
2023-02-14T08:35:05.395Z,79.80
2023-02-14T08:37:33.379Z,79.82
2023-02-14T08:40:01.526Z,79.90
2023-02-14T08:42:30.031Z,79.83
2023-02-14T08:44:57.999Z,79.71
2023-02-14T08:47:26.025Z,79.90
2023-02-14T08:49:53.986Z,79.90
2023-02-14T08:52:21.954Z,79.88
2023-02-14T08:54:50.263Z,79.76
2023-02-14T08:57:18.297Z,79.63
2023-02-14T08:59:46.300Z,79.74
2023-02-14T09:02:16.388Z,79.51
2023-02-14T09:04:45.059Z,79.34
2023-02-14T09:07:13.758Z,79.19
2023-02-14T09:09:41.949Z,79.22
2023-02-14T09:12:10.825Z,79.10
2023-02-14T09:14:43.972Z,78.99
2023-02-14T09:17:13.882Z,79.02
2023-02-14T09:19:41.839Z,78.93
2023-02-14T09:22:11.521Z,79.01
2023-02-14T09:24:41.502Z,79.09
2023-02-14T09:27:09.614Z,79.03
2023-02-14T09:29:37.776Z,78.90
2023-02-14T09:32:05.900Z,78.95
2023-02-14T09:34:35.325Z,79.02
2023-02-14T09:37:06.056Z,78.95
2023-02-14T09:39:36.065Z,78.76
2023-02-14T09:42:37.110Z,78.79
2023-02-14T09:45:09.769Z,78.75
2023-02-14T09:48:02.770Z,78.67
2023-02-14T09:50:35.486Z,78.47
2023-02-14T09:53:13.988Z,78.38
2023-02-14T09:56:20.630Z,78.32
2023-02-14T09:59:01.216Z,78.37
2023-02-14T10:01:36.798Z,78.33
2023-02-14T10:04:41.193Z,78.14
2023-02-14T10:07:31.403Z,78.07
2023-02-14T10:10:04.041Z,77.77
2023-02-14T10:12:37.867Z,77.37
2023-02-14T10:15:34.001Z,77.61
2023-02-14T10:18:14.866Z,77.58
2023-02-14T10:20:46.047Z,77.19
2023-02-14T10:23:24.765Z,77.31
2023-02-14T10:26:12.937Z,77.34
2023-02-14T10:28:44.545Z,77.01
2023-02-14T10:31:29.422Z,76.82
2023-02-14T10:34:10.389Z,76.40
2023-02-14T10:36:55.891Z,76.28
2023-02-14T10:40:01.512Z,75.89
2023-02-14T10:42:45.169Z,75.34
2023-02-14T10:45:35.287Z,75.39
2023-02-14T10:48:16.796Z,75.36
2023-02-14T10:50:58.791Z,75.15
2023-02-14T10:53:47.364Z,75.22
2023-02-14T10:56:21.716Z,74.94
2023-02-14T10:58:52.641Z,74.46
2023-02-14T11:01:20.777Z,73.76
2023-02-14T11:03:56.106Z,73.59
2023-02-14T11:06:24.494Z,73.33
2023-02-14T11:08:52.443Z,72.42
2023-02-14T11:11:20.416Z,71.50
2023-02-14T11:13:48.947Z,70.35
2023-02-14T11:16:37.094Z,69.88
2023-02-14T11:19:14.618Z,70.13
2023-02-14T11:21:45.542Z,69.56
2023-02-14T11:24:36.051Z,68.29
2023-02-14T11:27:17.241Z,67.72
2023-02-14T11:29:52.348Z,67.60
2023-02-14T11:32:31.131Z,67.63
2023-02-14T11:35:04.018Z,67.65
2023-02-14T11:37:38.300Z,66.75
2023-02-14T11:40:07.648Z,66.28
2023-02-14T11:42:41.735Z,66.31
2023-02-14T11:45:31.456Z,65.54
2023-02-14T11:48:17.770Z,65.16
2023-02-14T11:51:15.735Z,65.42
2023-02-14T11:53:56.527Z,64.82
2023-02-14T11:56:24.605Z,64.35
2023-02-14T11:58:55.772Z,63.96
2023-02-14T12:01:26.864Z,63.59
2023-02-14T12:03:57.541Z,63.15
2023-02-14T12:06:29.023Z,63.65
2023-02-14T12:09:22.215Z,63.90
2023-02-14T12:12:02.717Z,63.71
2023-02-14T12:14:33.815Z,64.17
2023-02-14T12:17:21.656Z,63.48
2023-02-14T12:20:11.838Z,62.68
2023-02-14T12:23:24.032Z,62.29
2023-02-14T12:26:01.520Z,62.95
2023-02-14T12:28:38.664Z,63.32
2023-02-14T12:31:12.571Z,63.40
2023-02-14T12:33:41.374Z,63.38
2023-02-14T12:36:14.694Z,63.50
2023-02-14T12:39:00.791Z,64.64
2023-02-14T12:42:05.774Z,64.77
2023-02-14T12:44:46.148Z,64.75
2023-02-14T12:47:41.797Z,64.27
2023-02-14T12:50:33.897Z,64.05
2023-02-14T12:53:26.381Z,64.09
2023-02-14T12:56:15.683Z,64.59
2023-02-14T12:58:54.538Z,64.46
2023-02-14T13:01:39.023Z,63.84
2023-02-14T13:04:20.801Z,63.66
2023-02-14T13:06:57.367Z,63.40
2023-02-14T13:09:28.474Z,63.36
2023-02-14T13:12:45.976Z,62.71
2023-02-14T13:15:40.629Z,63.10
2023-02-14T13:18:33.641Z,63.00
2023-02-14T13:21:05.211Z,62.60
2023-02-14T13:23:56.092Z,63.16
2023-02-14T13:26:34.992Z,63.50
2023-02-14T13:29:10.664Z,64.01
2023-02-14T13:31:39.269Z,64.53
2023-02-14T13:34:28.196Z,64.91
2023-02-14T13:36:58.920Z,65.05
2023-02-14T13:39:37.781Z,65.32
2023-02-14T13:42:07.338Z,65.51
2023-02-14T13:44:53.105Z,66.05
2023-02-14T13:47:27.126Z,66.57
2023-02-14T13:49:57.034Z,66.95
2023-02-14T13:52:47.423Z,67.41
2023-02-14T13:55:26.303Z,67.43
2023-02-14T13:58:24.293Z,67.54
2023-02-14T14:00:53.589Z,67.74
2023-02-14T14:03:27.786Z,68.17
2023-02-14T14:06:10.935Z,68.58
2023-02-14T14:08:49.371Z,68.91
2023-02-14T14:11:26.876Z,69.25
2023-02-14T14:14:14.628Z,69.61
2023-02-14T14:16:57.670Z,69.81
2023-02-14T14:19:25.798Z,69.98
2023-02-14T14:22:01.978Z,70.05
2023-02-14T14:24:36.133Z,70.30
2023-02-14T14:27:07.257Z,70.44
2023-02-14T14:29:39.051Z,70.62
2023-02-14T14:32:15.489Z,70.98
2023-02-14T14:34:52.678Z,71.11
2023-02-14T14:37:23.516Z,71.24
2023-02-14T14:39:57.602Z,71.35
2023-02-14T14:42:30.679Z,71.57
2023-02-14T14:45:06.569Z,71.90
2023-02-14T14:47:46.136Z,72.12
2023-02-14T14:50:24.705Z,72.45
2023-02-14T14:53:00.303Z,72.48
2023-02-14T14:55:45.206Z,72.68
2023-02-14T14:58:37.854Z,72.81
2023-02-14T15:01:10.936Z,73.05
2023-02-14T15:03:39.738Z,73.25
2023-02-14T15:06:13.988Z,73.53
2023-02-14T15:08:42.402Z,73.60
2023-02-14T15:11:39.018Z,73.86
2023-02-14T15:14:12.132Z,74.05
2023-02-14T15:16:50.638Z,74.05
2023-02-14T15:19:33.391Z,74.11
2023-02-14T15:22:07.744Z,74.11
2023-02-14T15:24:38.289Z,74.21
2023-02-14T15:27:15.829Z,74.47
2023-02-14T15:30:00.815Z,74.51
2023-02-14T15:32:32.254Z,74.65
2023-02-14T15:35:03.459Z,74.87
2023-02-14T15:37:32.383Z,75.30
2023-02-14T15:40:00.703Z,75.43
2023-02-14T15:42:33.700Z,75.72
2023-02-14T15:45:14.081Z,75.84
2023-02-14T15:47:45.976Z,76.02
2023-02-14T15:50:18.312Z,76.22
2023-02-14T15:52:48.031Z,76.55
2023-02-14T15:55:20.106Z,76.71
2023-02-14T15:57:57.366Z,76.82
2023-02-14T16:00:26.850Z,76.99
2023-02-14T16:03:00.410Z,77.11
2023-02-14T16:05:29.927Z,77.25
2023-02-14T16:08:29.516Z,77.42
2023-02-14T16:11:03.443Z,77.81
2023-02-14T16:13:33.577Z,77.76
2023-02-14T16:16:08.826Z,78.04
2023-02-14T16:18:52.928Z,78.55
2023-02-14T16:21:36.505Z,78.61
2023-02-14T16:24:07.485Z,78.78
2023-02-14T16:26:38.239Z,78.97
2023-02-14T16:29:11.015Z,78.95
2023-02-14T16:32:06.129Z,78.90
2023-02-14T16:34:31.954Z,79.11
2023-02-14T16:37:07.428Z,79.08
2023-02-14T16:39:36.110Z,79.53
2023-02-14T16:42:04.926Z,79.78
2023-02-14T16:44:33.100Z,80.07
2023-02-14T16:47:01.992Z,80.19
2023-02-14T16:49:30.134Z,80.25
2023-02-14T16:51:58.316Z,80.24
2023-02-14T16:54:26.935Z,80.44
2023-02-14T16:57:03.538Z,80.86
2023-02-14T16:59:31.783Z,81.04
2023-02-14T17:01:59.885Z,80.90
2023-02-14T17:04:27.927Z,80.70
2023-02-14T17:06:57.546Z,80.70
2023-02-14T17:09:29.896Z,81.11
2023-02-14T17:12:04.354Z,81.15
2023-02-14T17:14:39.792Z,81.40
2023-02-14T17:17:07.814Z,81.74
2023-02-14T17:19:36.636Z,81.66
2023-02-14T17:22:05.316Z,81.64
2023-02-14T17:24:33.410Z,81.55
2023-02-14T17:27:01.395Z,81.58
2023-02-14T17:29:29.477Z,81.47
2023-02-14T17:31:57.822Z,81.40
2023-02-14T17:34:26.008Z,81.28
2023-02-14T17:36:54.107Z,81.23
2023-02-14T17:39:22.793Z,81.35
2023-02-14T17:41:50.744Z,81.41
2023-02-14T17:44:18.638Z,81.41
2023-02-14T17:46:46.874Z,81.38
2023-02-14T17:49:14.945Z,81.30
2023-02-14T17:51:42.951Z,81.32
2023-02-14T17:54:12.316Z,81.34
2023-02-14T17:56:40.406Z,81.39
2023-02-14T17:59:08.385Z,81.27
2023-02-14T18:01:36.476Z,81.31
2023-02-14T18:04:06.075Z,81.54
2023-02-14T18:06:34.040Z,81.64
2023-02-14T18:09:05.804Z,81.68
2023-02-14T18:11:33.921Z,81.78
2023-02-14T18:14:03.767Z,82.02
2023-02-14T18:16:31.785Z,82.08
2023-02-14T18:19:04.290Z,82.01
2023-02-14T18:21:35.651Z,82.00
2023-02-14T18:24:04.193Z,82.19
2023-02-14T18:26:33.223Z,82.11
2023-02-14T18:29:06.569Z,82.08
2023-02-14T18:31:36.791Z,82.10
2023-02-14T18:34:05.169Z,82.19
2023-02-14T18:36:35.579Z,82.31
2023-02-14T18:39:05.060Z,82.27
2023-02-14T18:41:33.404Z,82.18
2023-02-14T18:44:01.692Z,82.08
2023-02-14T18:46:33.876Z,82.25
2023-02-14T18:49:04.247Z,82.23
2023-02-14T18:51:35.674Z,82.20
2023-02-14T18:54:04.617Z,82.17
2023-02-14T18:56:35.852Z,82.16
2023-02-14T18:59:07.145Z,82.20
2023-02-14T19:01:38.664Z,82.20
2023-02-14T19:04:09.034Z,82.15
2023-02-14T19:06:37.020Z,82.04
2023-02-14T19:09:12.602Z,81.99
2023-02-14T19:11:41.004Z,81.73
2023-02-14T19:14:10.698Z,81.75
2023-02-14T19:16:44.149Z,81.73
2023-02-14T19:19:12.606Z,81.61
2023-02-14T19:21:40.754Z,81.43
2023-02-14T19:24:09.095Z,81.35
2023-02-14T19:26:40.825Z,81.27
2023-02-14T19:29:15.760Z,81.29
2023-02-14T19:31:48.248Z,81.38
2023-02-14T19:34:29.606Z,81.42
2023-02-14T19:37:00.657Z,81.50
2023-02-14T19:39:30.061Z,81.47
2023-02-14T19:41:59.072Z,81.67
2023-02-14T19:44:29.426Z,81.67
2023-02-14T19:47:01.907Z,81.76
2023-02-14T19:49:32.152Z,81.98
2023-02-14T19:52:00.208Z,82.08
2023-02-14T19:54:30.134Z,82.11
2023-02-14T19:56:59.000Z,82.33
2023-02-14T19:59:27.992Z,82.24
2023-02-14T20:01:57.606Z,82.37
2023-02-14T20:04:29.093Z,82.59
2023-02-14T20:06:57.757Z,82.61
2023-02-14T20:09:26.021Z,82.59
2023-02-14T20:11:56.334Z,82.83
2023-02-14T20:14:27.897Z,82.92
2023-02-14T20:16:58.338Z,82.98
2023-02-14T20:19:30.464Z,83.23
2023-02-14T20:21:59.471Z,83.33
2023-02-14T20:24:30.775Z,83.35
2023-02-14T20:27:00.602Z,83.33
2023-02-14T20:29:29.077Z,83.56
2023-02-14T20:32:00.099Z,83.75
2023-02-14T20:34:28.529Z,83.73
2023-02-14T20:36:59.300Z,83.98
2023-02-14T20:39:33.315Z,84.03
2023-02-14T20:42:02.014Z,83.95
2023-02-14T20:44:30.785Z,84.11
2023-02-14T20:46:58.957Z,84.01
2023-02-14T20:49:28.909Z,84.08
2023-02-14T20:51:58.942Z,84.14
2023-02-14T20:54:28.340Z,84.17
2023-02-14T20:56:57.941Z,84.20
2023-02-14T20:59:29.103Z,84.36
2023-02-14T21:01:58.842Z,84.22
2023-02-14T21:04:27.742Z,84.27
2023-02-14T21:06:57.804Z,84.27
2023-02-14T21:09:25.920Z,84.35
2023-02-14T21:11:54.148Z,84.35
2023-02-14T21:14:22.351Z,84.35
2023-02-14T21:16:50.407Z,84.29
2023-02-14T21:19:18.864Z,84.15
2023-02-14T21:21:47.090Z,84.31
2023-02-14T21:24:16.267Z,84.50
2023-02-14T21:26:45.174Z,84.42
2023-02-14T21:29:13.178Z,84.26
2023-02-14T21:31:42.486Z,84.32
2023-02-14T21:34:11.198Z,84.35
2023-02-14T21:36:39.109Z,84.19
2023-02-14T21:39:07.572Z,84.13
2023-02-14T21:41:36.548Z,84.27
2023-02-14T21:44:05.521Z,84.28
2023-02-14T21:46:38.319Z,84.36
2023-02-14T21:49:25.056Z,84.57
2023-02-14T21:51:53.076Z,84.94
2023-02-14T21:54:21.173Z,84.87
2023-02-14T21:56:49.914Z,84.90
2023-02-14T21:59:18.018Z,85.07
2023-02-14T22:01:46.054Z,85.19
2023-02-14T22:04:14.214Z,85.25
2023-02-14T22:06:43.056Z,85.49
2023-02-14T22:09:13.875Z,85.63
2023-02-14T22:11:42.126Z,85.73
2023-02-14T22:14:10.268Z,85.71
2023-02-14T22:16:38.475Z,85.84
2023-02-14T22:19:08.040Z,86.07
2023-02-14T22:21:36.294Z,86.16
2023-02-14T22:24:04.742Z,86.25
2023-02-14T22:26:38.722Z,86.57
2023-02-14T22:29:09.609Z,86.86
2023-02-14T22:31:41.030Z,87.08
2023-02-14T22:34:12.061Z,87.24
2023-02-14T22:36:41.968Z,87.17
2023-02-14T22:39:14.442Z,87.26
2023-02-14T22:41:43.344Z,87.74
2023-02-14T22:44:13.285Z,87.49
2023-02-14T22:46:41.430Z,87.21
2023-02-14T22:49:09.427Z,87.20
2023-02-14T22:51:39.724Z,87.30
2023-02-14T22:54:12.414Z,87.16
2023-02-14T22:56:48.360Z,87.14
2023-02-14T22:59:22.234Z,87.16
2023-02-14T23:01:51.833Z,87.40
2023-02-14T23:04:24.588Z,87.23
2023-02-14T23:06:53.685Z,87.23
2023-02-14T23:09:22.710Z,87.13
2023-02-14T23:11:51.196Z,87.01
2023-02-14T23:14:37.956Z,86.86
2023-02-14T23:17:24.647Z,86.90
2023-02-14T23:20:11.818Z,86.98
2023-02-14T23:22:41.133Z,87.09
2023-02-14T23:25:11.384Z,87.39
2023-02-14T23:27:47.311Z,87.54
2023-02-14T23:30:17.699Z,87.65
2023-02-14T23:32:45.873Z,87.68
2023-02-14T23:35:14.068Z,88.47
2023-02-14T23:37:42.112Z,88.33
2023-02-14T23:40:10.471Z,88.39
2023-02-14T23:42:38.639Z,88.60
2023-02-14T23:45:26.313Z,88.90
2023-02-14T23:47:54.409Z,88.82
2023-02-14T23:50:22.525Z,88.79
2023-02-14T23:52:50.551Z,89.07
2023-02-14T23:55:18.660Z,89.27
2023-02-14T23:57:46.781Z,89.36
